Time;durP1;ratioP1;P1;durP2;ratioP2;P2;SDS_P1;SDS_P2;PMS_P1;PMS_P2;Temp;Humidity;BMP_temperature;BMP_pressure;BME280_temperature;BME280_humidity;BME280_pressure;Samples;Min_cycle;Max_cycle;Signal;HPM_P1;HPM_P2
2022/01/14 00:01:12;;;;;;;48.33;17.32;;;;;;;-4.08;75.57;100651.38;1665248;82;21118;-83
2022/01/14 00:03:42;;;;;;;39.45;15.20;;;;;;;-4.09;75.36;100663.61;1707422;81;21137;-83
2022/01/14 00:06:15;;;;;;;44.73;15.05;;;;;;;-4.12;75.92;100653.27;1685140;80;21091;31
2022/01/14 00:08:42;;;;;;;37.90;13.72;;;;;;;-4.10;75.40;100644.06;1716023;80;21186;-84
2022/01/14 00:11:15;;;;;;;43.68;15.23;;;;;;;-4.14;75.08;100634.52;1692133;80;21087;-84
2022/01/14 00:14:07;;;;;;;38.10;15.50;;;;;;;-4.14;75.24;100634.52;1688426;83;21120;-84
2022/01/14 00:16:23;;;;;;;53.70;16.25;;;;;;;-4.18;75.99;100627.11;1666211;81;21210;-77
2022/01/14 00:18:50;;;;;;;50.33;16.60;;;;;;;-4.20;75.97;100627.05;1680685;81;21109;-82
2022/01/14 00:21:18;;;;;;;41.35;16.25;;;;;;;-4.22;76.61;100628.61;1684186;80;21108;-85
2022/01/14 00:23:50;;;;;;;45.83;16.30;;;;;;;-4.18;75.41;100626.23;1690327;81;21162;-83
2022/01/14 00:31:58;;;;;;;41.92;13.58;;;;;;;-4.16;75.56;100617.05;1674087;80;21150;-83
2022/01/14 00:34:23;;;;;;;41.88;15.65;;;;;;;-4.17;76.06;100612.36;1713923;80;21076;-84
2022/01/14 00:36:51;;;;;;;44.93;16.12;;;;;;;-4.16;76.52;100622.98;1738893;80;21160;-82
2022/01/14 00:39:18;;;;;;;46.68;15.60;;;;;;;-4.13;76.25;100628.66;1732588;79;21094;-79
2022/01/14 00:41:46;;;;;;;38.83;15.10;;;;;;;-4.13;75.97;100624.86;1739494;80;21629;-80
2022/01/14 00:44:24;;;;;;;37.90;14.25;;;;;;;-4.11;75.96;100621.61;1719161;80;21016;31
2022/01/14 00:46:58;;;;;;;47.30;15.83;;;;;;;-4.09;75.34;100625.11;1732312;80;21053;31
2022/01/14 00:49:26;;;;;;;;;;;;;;;-4.07;75.63;100624.80;1714864;80;21166;-82
2022/01/14 00:51:53;;;;;;;42.80;16.85;;;;;;;-4.08;76.51;100625.61;1725552;80;20589;-84
2022/01/14 00:54:22;;;;;;;50.73;17.37;;;;;;;-4.07;75.50;100617.19;1712131;79;21118;-75
2022/01/14 00:59:56;;;;;;;41.17;15.30;;;;;;;-4.07;76.54;100614.64;1702222;80;21426;31
2022/01/14 01:02:33;;;;;;;37.20;14.33;;;;;;;-4.06;76.71;100600.27;1702271;79;21096;31
2022/01/14 01:05:01;;;;;;;40.48;14.58;;;;;;;-4.07;77.16;100613.78;1680286;80;21141;-84
2022/01/14 01:07:43;;;;;;;42.05;14.55;;;;;;;-4.04;76.47;100608.86;1693020;80;21209;31
2022/01/14 01:10:18;;;;;;;47.87;15.20;;;;;;;-4.05;77.26;100607.98;1651241;81;21084;31
2022/01/14 01:13:07;;;;;;;41.77;14.55;;;;;;;-4.04;77.12;100616.11;1643402;82;21374;31
2022/01/14 01:15:27;;;;;;;45.12;15.70;;;;;;;-4.02;76.98;100607.28;1645274;82;21130;-79
2022/01/14 01:20:59;;;;;;;48.28;16.73;;;;;;;-3.91;76.44;100599.02;1670102;80;21610;31
2022/01/14 01:23:34;;;;;;;41.25;16.32;;;;;;;-3.86;76.62;100598.50;1694132;80;21463;31
2022/01/14 01:31:55;;;;;;;42.47;16.53;;;;;;;-3.74;78.18;100591.06;1681305;81;21170;31
2022/01/14 01:34:40;;;;;;;50.50;17.37;;;;;;;-3.68;78.25;100587.59;1644845;83;22354;31
2022/01/14 01:49:10;;;;;;;51.73;17.03;;;;;;;-3.55;78.01;100559.52;1699418;81;21126;31
2022/01/14 01:54:52;;;;;;;48.57;17.27;;;;;;;-3.51;78.16;100527.52;1685991;80;21201;31
2022/01/14 01:57:43;;;;;;;49.90;17.50;;;;;;;-3.55;79.28;100517.58;1692130;81;21138;31
2022/01/14 02:03:33;;;;;;;40.58;15.18;;;;;;;-3.61;80.06;100521.92;1696797;79;21208;31
2022/01/14 02:06:25;;;;;;;40.55;15.38;;;;;;;-3.59;79.48;100516.94;1722578;79;21078;31
2022/01/14 02:08:53;;;;;;;44.80;17.35;;;;;;;-3.56;79.23;100508.22;1698165;79;21099;-83
2022/01/14 02:11:21;;;;;;;53.78;19.07;;;;;;;-3.53;79.37;100502.01;1707232;79;21073;-82
2022/01/14 02:14:11;;;;;;;48.30;17.27;;;;;;;-3.53;79.71;100493.11;1719981;80;21154;31
2022/01/14 02:19:30;;;;;;;44.60;14.53;;;;;;;-3.42;78.60;100469.55;1674522;84;21095;-83
2022/01/14 02:22:14;;;;;;;48.35;17.10;;;;;;;-3.36;78.93;100472.41;1706406;79;21195;31
2022/01/14 02:27:30;;;;;;;53.73;18.85;;;;;;;-3.45;80.50;100455.38;1686777;81;21131;31
2022/01/14 02:29:58;;;;;;;48.13;17.07;;;;;;;-3.43;80.46;100465.23;1725702;81;21353;-82
2022/01/14 02:32:49;;;;;;;54.20;16.83;;;;;;;-3.36;80.17;100453.34;1683658;80;21229;31
2022/01/14 02:35:39;;;;;;;43.55;14.25;;;;;;;-3.32;80.50;100435.27;1674381;81;21082;31
2022/01/14 02:38:22;;;;;;;43.63;16.12;;;;;;;-3.23;79.50;100431.94;1653874;81;22824;31
2022/01/14 02:41:04;;;;;;;41.45;12.88;;;;;;;-3.23;80.79;100435.76;1705247;80;22421;31
2022/01/14 02:43:47;;;;;;;41.05;14.87;;;;;;;-3.15;80.22;100425.58;1714861;79;21138;31
2022/01/14 02:46:40;;;;;;;40.48;15.00;;;;;;;-3.14;80.79;100413.72;1648749;82;21156;31
2022/01/14 02:49:05;;;;;;;44.58;14.70;;;;;;;-3.07;80.24;100420.88;1663585;84;21095;-83
2022/01/14 02:51:49;;;;;;;44.00;14.90;;;;;;;-3.06;80.68;100414.61;1669075;82;21122;31
2022/01/14 02:54:32;;;;;;;36.65;13.32;;;;;;;-2.97;80.42;100406.55;1700319;82;21139;31
2022/01/14 03:00:09;;;;;;;46.40;13.93;;;;;;;-2.89;80.23;100393.80;1677262;81;21161;31
2022/01/14 03:02:40;;;;;;;38.28;13.55;;;;;;;-2.89;80.73;100411.62;1685493;82;21354;-85
2022/01/14 03:05:09;;;;;;;39.13;13.60;;;;;;;-2.87;80.96;100412.97;1743882;82;21125;-82
2022/01/14 03:07:38;;;;;;;35.13;12.98;;;;;;;-2.85;80.96;100403.34;1705801;83;21023;-84
2022/01/14 03:10:11;;;;;;;31.42;11.38;;;;;;;-2.78;81.13;100413.44;1700121;84;21090;-84
2022/01/14 03:35:08;;;;;;;21.07;8.38;;;;;;;-2.40;80.84;100364.77;1714072;79;21108;-84
2022/01/14 03:37:55;;;;;;;25.70;9.77;;;;;;;-2.28;79.70;100371.70;1733330;79;21132;31
2022/01/14 03:40:23;;;;;;;19.45;7.55;;;;;;;-2.33;80.77;100360.41;1701668;81;21145;-84
2022/01/14 03:45:55;;;;;;;27.70;9.33;;;;;;;-2.25;80.30;100364.22;1695076;79;21157;31
2022/01/14 03:48:23;;;;;;;27.65;9.25;;;;;;;-2.22;80.57;100354.56;1733780;79;21139;-82
2022/01/14 04:00:11;;;;;;;26.62;9.55;;;;;;;-2.21;80.46;100352.09;1672122;81;22322;31
2022/01/14 04:24:28;;;;;;;25.50;8.68;;;;;;;-2.07;79.73;100355.28;1682619;81;22455;31
2022/01/14 04:26:56;;;;;;;30.08;10.00;;;;;;;-2.01;79.47;100351.73;1681268;81;21176;-83
2022/01/14 04:38:49;;;;;;;25.30;10.00;;;;;;;-2.01;79.35;100340.27;1704829;78;21094;31
2022/01/14 04:41:19;;;;;;;27.25;10.00;;;;;;;-2.00;79.80;100343.67;1709941;81;21144;-84
2022/01/14 04:49:08;;;;;;;25.68;9.03;;;;;;;-1.96;80.09;100330.27;1683666;81;21065;-82
2022/01/14 04:51:38;;;;;;;29.52;10.82;;;;;;;-1.92;79.74;100332.56;1666442;82;21031;-83
2022/01/14 05:29:41;;;;;;;33.73;14.28;;;;;;;-1.80;78.79;100317.80;1616170;83;21191;-83
2022/01/14 05:38:15;;;;;;;47.27;15.25;;;;;;;-1.91;79.05;100303.32;1647287;83;21126;-82
2022/01/14 05:46:52;;;;;;;40.45;13.45;;;;;;;-2.07;79.74;100286.85;1686075;81;21301;-82
2022/01/14 05:52:24;;;;;;;42.90;14.53;;;;;;;-2.05;79.05;100285.24;1692792;80;21091;-84
2022/01/14 05:54:55;;;;;;;47.85;16.40;;;;;;;-2.08;79.52;100273.25;1679678;83;21035;-83
2022/01/14 05:57:23;;;;;;;41.20;14.55;;;;;;;-2.12;79.81;100279.42;1679262;84;21110;-83
2022/01/14 05:59:51;;;;;;;36.28;13.78;;;;;;;-2.11;79.46;100273.13;1661115;84;21039;-84
2022/01/14 06:20:53;;;;;;;36.83;11.97;;;;;;;-2.23;81.41;100272.55;1672444;80;21207;-81
2022/01/14 06:26:04;;;;;;;40.95;13.70;;;;;;;-2.15;80.71;100276.73;1685741;81;21124;-82
2022/01/14 06:28:33;;;;;;;38.95;14.05;;;;;;;-2.12;80.51;100262.45;1712201;82;21043;-81
2022/01/14 06:31:01;;;;;;;36.60;13.65;;;;;;;-2.11;80.73;100264.59;1710505;82;21036;-82
2022/01/14 06:33:29;;;;;;;38.83;12.55;;;;;;;-2.10;80.75;100259.98;1712068;83;21028;-84
2022/01/14 06:35:59;;;;;;;31.10;11.38;;;;;;;-2.05;80.22;100259.39;1711919;84;21040;-82
2022/01/14 06:38:27;;;;;;;32.25;11.88;;;;;;;-2.03;80.50;100260.70;1712118;82;21079;-83
2022/01/14 06:41:15;;;;;;;43.65;12.35;;;;;;;-1.96;80.06;100255.49;1708354;81;21184;31
2022/01/14 06:43:53;;;;;;;32.10;10.05;;;;;;;-1.94;80.05;100247.51;1710357;81;21125;31
2022/01/14 06:46:20;;;;;;;36.15;13.62;;;;;;;-1.99;80.73;100232.00;1640788;82;21205;-81
2022/01/14 06:48:48;;;;;;;39.30;13.80;;;;;;;-1.98;80.93;100229.93;1679631;81;21022;-82
2022/01/14 06:51:16;;;;;;;29.72;13.25;;;;;;;-2.00;81.16;100227.72;1704580;82;21079;-83
2022/01/14 06:53:43;;;;;;;26.45;10.85;;;;;;;-1.97;80.86;100228.25;1706979;82;21103;-82
2022/01/14 06:59:00;;;;;;;39.18;12.98;;;;;;;-1.94;80.76;100223.30;1746825;80;21069;-82
2022/01/14 07:01:28;;;;;;;29.95;12.65;;;;;;;-1.96;81.57;100221.95;1775859;79;21449;-82
2022/01/14 07:03:56;;;;;;;31.97;13.18;;;;;;;-1.92;81.48;100228.92;1789828;79;21073;-81
2022/01/14 07:06:23;;;;;;;40.48;14.23;;;;;;;-1.84;80.94;100223.74;1715406;79;21087;-82
2022/01/14 07:08:50;;;;;;;34.23;12.65;;;;;;;-1.83;81.57;100219.13;1704588;84;21036;-82
2022/01/14 07:11:19;;;;;;;35.70;12.70;;;;;;;-1.80;81.12;100227.30;1688120;84;22022;-84
2022/01/14 07:22:55;;;;;;;30.10;12.03;;;;;;;-1.62;82.17;100224.66;1703077;79;22998;-85
2022/01/14 07:25:23;;;;;;;30.17;11.70;;;;;;;-1.57;81.87;100221.91;1738096;80;21226;-82
2022/01/14 07:27:51;;;;;;;34.53;12.35;;;;;;;-1.50;81.52;100217.92;1734649;82;21147;-82
2022/01/14 07:30:19;;;;;;;31.80;11.48;;;;;;;-1.45;81.84;100219.86;1731183;80;21087;-82
2022/01/14 07:32:46;;;;;;;32.90;12.82;;;;;;;-1.36;81.38;100207.88;1702312;82;21015;-81
2022/01/14 07:35:14;;;;;;;39.98;12.00;;;;;;;-1.38;81.88;100199.28;1731553;80;21063;-83
2022/01/14 07:37:42;;;;;;;31.95;11.55;;;;;;;-1.32;81.36;100188.46;1730803;81;20967;-82
2022/01/14 07:40:20;;;;;;;35.03;12.05;;;;;;;-1.32;81.54;100195.70;1698005;80;21145;31
2022/01/14 07:42:47;;;;;;;31.02;11.95;;;;;;;-1.26;81.46;100194.67;1688319;82;21034;-81
2022/01/14 07:48:19;;;;;;;27.33;10.57;;;;;;;-1.13;81.31;100188.39;1683950;81;21055;-81
2022/01/14 07:56:58;;;;;;;37.75;12.28;;;;;;;-1.03;81.32;100159.00;1680643;81;21095;-83
2022/01/14 07:59:30;;;;;;;26.70;11.65;;;;;;;-0.97;81.10;100165.61;1677816;83;20987;-80
2022/01/14 08:01:59;;;;;;;32.33;11.22;;;;;;;-0.96;81.09;100149.88;1669770;82;21060;-79
2022/01/14 08:10:36;;;;;;;24.23;8.70;;;;;;;-0.90;80.94;100142.03;1710055;81;21092;-83
2022/01/14 08:13:05;;;;;;;32.73;12.37;;;;;;;-0.87;80.97;100138.33;1730356;81;21048;-82
2022/01/14 08:15:33;;;;;;;36.38;12.95;;;;;;;-0.85;81.16;100137.12;1729699;82;21359;-81
2022/01/14 08:18:02;;;;;;;33.70;11.25;;;;;;;-0.81;81.15;100129.63;1733137;80;21087;-80
2022/01/14 08:20:46;;;;;;;28.10;12.68;;;;;;;-0.71;80.75;100121.90;1720499;81;21107;31
2022/01/14 08:26:31;;;;;;;31.97;11.37;;;;;;;-0.71;80.89;100100.19;1716480;79;21245;31
2022/01/14 08:32:03;;;;;;;35.73;12.78;;;;;;;-0.66;80.88;100088.86;1665287;82;21180;-82
2022/01/14 08:37:36;;;;;;;31.97;11.95;;;;;;;-0.65;81.09;100077.84;1685774;81;21120;-82
2022/01/14 08:40:06;;;;;;;33.60;12.75;;;;;;;-0.66;80.94;100076.98;1702151;81;21068;-83
2022/01/14 08:42:34;;;;;;;31.62;12.28;;;;;;;-0.62;81.05;100074.09;1700703;83;21047;-82
2022/01/14 08:45:06;;;;;;;32.80;12.55;;;;;;;-0.52;80.78;100066.36;1715899;83;21068;-85
2022/01/14 08:47:33;;;;;;;33.58;13.15;;;;;;;-0.49;80.75;100062.23;1700153;83;20990;-83
2022/01/14 08:50:01;;;;;;;36.77;13.15;;;;;;;-0.41;80.58;100055.70;1706806;83;21369;-82
2022/01/14 08:52:28;;;;;;;34.38;13.00;;;;;;;-0.34;80.37;100062.29;1704711;81;21042;-83
2022/01/14 08:54:59;;;;;;;49.53;14.60;;;;;;;-0.28;80.41;100055.72;1708101;80;21094;-82
2022/01/14 08:57:26;;;;;;;36.88;14.00;;;;;;;-0.16;80.16;100050.16;1690026;80;21087;-81
2022/01/14 08:59:54;;;;;;;35.78;13.85;;;;;;;-0.18;80.11;100050.48;1675928;79;21131;-79
2022/01/14 09:08:31;;;;;;;41.28;16.25;;;;;;;-0.22;79.98;100043.53;1710115;79;21083;-81
2022/01/14 09:17:07;;;;;;;39.53;14.70;;;;;;;-0.09;79.71;100042.27;1688911;79;21113;-83
2022/01/14 09:19:36;;;;;;;36.85;13.90;;;;;;;-0.10;79.81;100054.19;1742286;79;21091;-81
2022/01/14 09:25:19;;;;;;;34.23;13.62;;;;;;;0.03;79.60;100066.95;1693873;81;22902;-83
2022/01/14 09:28:10;;;;;;;35.60;13.77;;;;;;;0.05;79.36;100069.16;1699411;80;21652;31
2022/01/14 09:30:38;;;;;;;36.88;13.50;;;;;;;0.15;79.32;100066.48;1661588;84;21106;-82
2022/01/14 09:33:06;;;;;;;43.65;14.53;;;;;;;0.18;79.16;100069.16;1650506;86;21129;-80
2022/01/14 09:35:34;;;;;;;33.88;14.83;;;;;;;0.25;79.31;100063.82;1667050;82;21096;-81
2022/01/14 09:38:02;;;;;;;35.52;13.78;;;;;;;0.32;79.15;100060.61;1675914;79;21143;-80
2022/01/14 09:40:30;;;;;;;37.78;14.55;;;;;;;0.44;79.21;100055.91;1797296;78;21065;-82
2022/01/14 09:43:00;;;;;;;37.08;15.20;;;;;;;0.47;78.52;100049.59;1801012;78;21011;-83
2022/01/14 09:45:28;;;;;;;35.60;15.00;;;;;;;0.58;78.86;100044.40;1794494;80;21041;-84
2022/01/14 09:53:56;;;;;;;35.23;13.55;;;;;;;0.92;78.09;100026.62;1767071;80;21210;-82
2022/01/14 09:56:26;;;;;;;36.48;13.38;;;;;;;1.04;78.02;100027.37;1779738;80;21043;-82
2022/01/14 10:01:57;;;;;;;37.00;12.40;;;;;;;1.01;76.69;100015.75;1718312;79;21424;-83
2022/01/14 10:04:25;;;;;;;34.50;13.05;;;;;;;1.12;76.98;100011.81;1661266;82;21174;-82
2022/01/14 10:06:56;;;;;;;31.30;12.10;;;;;;;1.14;76.39;100005.03;1728069;82;21087;-82
2022/01/14 10:18:35;;;;;;;33.55;11.65;;;;;;;1.39;75.33;99971.56;1674154;80;21155;-83
2022/01/14 10:21:08;;;;;;;33.75;13.18;;;;;;;1.61;74.77;99959.69;1632257;87;21157;-86
2022/01/14 10:23:51;;;;;;;29.92;11.63;;;;;;;1.52;74.36;99950.09;1597283;86;21138;-83
2022/01/14 10:26:20;;;;;;;35.43;11.75;;;;;;;1.69;75.57;99946.64;1701393;82;21210;-89
2022/01/14 10:32:01;;;;;;;34.35;13.13;;;;;;;1.84;74.27;99933.34;1713012;81;21086;-83
2022/01/14 10:34:29;;;;;;;32.13;12.75;;;;;;;1.93;73.98;99928.41;1732996;82;21083;-87
2022/01/14 10:40:15;;;;;;;33.83;12.85;;;;;;;2.11;72.78;99919.86;1701897;82;21153;-89
2022/01/14 10:42:45;;;;;;;36.53;12.55;;;;;;;2.14;72.44;99917.34;1751044;80;21031;-83
2022/01/14 10:48:29;;;;;;;39.65;14.03;;;;;;;2.30;72.39;99911.28;1799484;80;21063;-91
2022/01/14 10:51:10;;;;;;;32.90;12.73;;;;;;;2.39;72.36;99908.49;1725546;80;21111;-90
2022/01/14 10:53:42;;;;;;;27.90;12.90;;;;;;;2.44;71.74;99901.30;1708401;81;21037;-86
2022/01/14 10:56:19;;;;;;;30.43;13.35;;;;;;;2.46;72.02;99904.77;1677596;81;21132;-87
2022/01/14 10:58:50;;;;;;;34.85;12.30;;;;;;;2.41;71.28;99900.83;1676100;83;21094;-88
2022/01/14 11:01:22;;;;;;;31.90;13.08;;;;;;;2.30;71.77;99855.68;1683161;82;21039;-87
2022/01/14 11:04:03;;;;;;;34.03;12.93;;;;;;;2.41;70.99;99867.47;1714507;80;21095;-88
2022/01/14 11:06:38;;;;;;;35.58;14.40;;;;;;;2.42;71.79;99862.77;1722664;80;21052;-83
2022/01/14 11:09:13;;;;;;;37.13;13.68;;;;;;;2.37;72.08;99851.56;1653006;85;20980;-90
2022/01/14 11:11:46;;;;;;;34.60;13.25;;;;;;;2.28;71.82;99850.08;1732807;80;21091;-90
2022/01/14 11:14:14;;;;;;;39.58;13.78;;;;;;;2.17;72.20;99860.14;1732089;80;21107;-90
2022/01/14 11:40:51;;;;;;;30.60;12.27;;;;;;;2.33;72.39;99795.88;1720054;80;21145;-90
2022/01/14 11:43:54;;;;;;;32.03;12.82;;;;;;;2.18;72.48;99785.74;1709492;83;21095;-90
2022/01/14 11:46:37;;;;;;;36.55;11.63;;;;;;;2.06;72.45;99791.06;1772599;80;21094;-88
2022/01/14 11:52:14;;;;;;;42.67;13.05;;;;;;;2.08;72.58;99774.86;1703170;79;21219;-88
2022/01/14 11:54:45;;;;;;;32.35;12.20;;;;;;;2.03;72.85;99775.20;1745091;81;21028;-88
2022/01/14 11:57:44;;;;;;;30.72;12.13;;;;;;;1.95;72.59;99776.72;1714178;82;21038;-87
2022/01/14 12:00:33;;;;;;;33.70;13.13;;;;;;;1.90;72.94;99770.65;1691334;81;21085;-87
2022/01/14 12:14:55;;;;;;;27.65;12.15;;;;;;;1.79;73.43;99760.15;1665215;85;21089;-84
2022/01/14 12:17:19;;;;;;;33.42;12.98;;;;;;;1.78;73.46;99763.56;1668962;83;21051;-82
2022/01/14 12:19:46;;;;;;;33.65;11.63;;;;;;;1.68;73.77;99756.09;1632834;85;21023;-83
2022/01/14 12:22:23;;;;;;;33.78;11.50;;;;;;;1.72;73.66;99754.04;1675784;84;21051;-86
2022/01/14 12:24:52;;;;;;;27.32;10.78;;;;;;;1.73;73.82;99745.53;1664797;85;21109;-84
2022/01/14 12:27:23;;;;;;;34.60;12.58;;;;;;;1.83;73.68;99732.48;1655051;85;21059;-82
2022/01/14 12:30:02;;;;;;;28.55;10.30;;;;;;;1.94;73.48;99720.73;1656598;86;21071;-84
2022/01/14 12:32:34;;;;;;;32.10;10.80;;;;;;;1.99;73.27;99719.13;1668685;86;21059;-85
2022/01/14 12:35:15;;;;;;;30.80;11.22;;;;;;;1.97;73.05;99716.09;1668205;85;21101;-85
2022/01/14 12:37:51;;;;;;;31.82;12.53;;;;;;;2.02;72.74;99708.05;1675261;84;21028;-84
2022/01/14 12:40:29;;;;;;;34.73;11.93;;;;;;;2.15;72.91;99704.04;1701445;80;21106;-86
2022/01/14 12:43:02;;;;;;;35.73;13.13;;;;;;;2.13;73.10;99707.85;1694216;81;21073;-88
2022/01/14 12:45:36;;;;;;;33.53;11.20;;;;;;;2.12;72.59;99709.09;1714122;80;21135;-84
2022/01/14 12:48:39;;;;;;;;;;;;;;;2.05;72.82;99714.54;1676715;85;21105;-87
2022/01/14 12:51:09;;;;;;;;;;;;;;;2.04;72.95;99718.35;1759116;79;20139;-90
2022/01/14 12:53:46;;;;;;;36.65;12.98;;;;;;;2.14;72.46;99718.97;1750478;79;20089;-86
2022/01/14 12:56:20;;;;;;;32.30;12.03;;;;;;;2.10;72.65;99718.04;1780239;79;21028;-84
2022/01/14 12:58:55;;;;;;;38.17;15.50;;;;;;;2.13;72.79;99723.24;1785448;80;21498;-84
2022/01/14 13:01:41;;;;;;;41.40;13.45;;;;;;;1.99;73.05;99725.97;1731850;83;20980;-84
2022/01/14 13:04:14;;;;;;;32.75;12.55;;;;;;;2.09;73.00;99722.73;1735929;80;21025;-84
2022/01/14 13:06:48;;;;;;;33.33;12.23;;;;;;;2.02;73.22;99729.86;1736840;80;20996;-84
2022/01/14 13:09:21;;;;;;;31.68;12.95;;;;;;;2.07;72.88;99723.52;1665489;80;21125;-83
2022/01/14 13:12:17;;;;;;;34.03;12.03;;;;;;;2.00;73.12;99721.27;1679385;83;21027;-83
2022/01/14 13:14:53;;;;;;;33.85;13.08;;;;;;;1.98;73.14;99730.20;1666967;83;21024;-86
2022/01/14 13:17:28;;;;;;;37.48;12.55;;;;;;;1.83;73.55;99725.19;1672028;83;20983;-86
2022/01/14 13:20:01;;;;;;;38.15;13.38;;;;;;;1.83;73.68;99725.19;1675066;84;21092;-83
2022/01/14 13:22:32;;;;;;;38.10;13.85;;;;;;;1.79;73.89;99728.98;1660588;81;21526;-85
2022/01/14 13:25:17;;;;;;;34.23;13.25;;;;;;;1.71;74.16;99725.41;1734157;81;21088;-84
2022/01/14 13:27:51;;;;;;;36.10;12.65;;;;;;;1.68;73.95;99731.73;1733115;81;21078;-83
2022/01/14 13:30:34;;;;;;;35.25;13.38;;;;;;;1.61;74.49;99733.71;1745667;81;21089;-81
2022/01/14 13:33:09;;;;;;;34.53;13.40;;;;;;;1.65;73.98;99724.00;1743081;80;21015;-81
2022/01/14 13:35:46;;;;;;;38.42;12.35;;;;;;;1.61;74.33;99726.02;1761984;79;21023;-82
2022/01/14 13:38:19;;;;;;;32.28;11.08;;;;;;;1.52;74.73;99725.84;1750001;79;21062;-83
2022/01/14 13:40:57;;;;;;;28.93;10.40;;;;;;;1.55;74.62;99726.78;1744026;79;21011;-81
2022/01/14 13:46:49;;;;;;;31.80;11.57;;;;;;;1.74;73.96;99716.91;1732894;80;21113;-82
2022/01/14 13:49:23;;;;;;;24.18;7.75;;;;;;;1.81;73.85;99723.91;1707294;81;21088;-84
2022/01/14 13:52:13;;;;;;;17.00;6.97;;;;;;;1.74;72.19;99711.78;1669093;80;21127;31
2022/01/14 13:54:43;;;;;;;18.25;6.55;;;;;;;1.84;71.08;99720.52;1742497;79;21210;-87
2022/01/14 13:57:16;;;;;;;20.50;5.85;;;;;;;1.82;70.48;99710.66;1734261;80;21148;-80
2022/01/14 13:59:45;;;;;;;14.63;6.05;;;;;;;1.85;70.51;99712.88;1713100;80;21134;-83
2022/01/14 14:02:30;;;;;;;11.40;4.92;;;;;;;1.90;70.47;99702.70;1705343;80;21062;-87
2022/01/14 14:04:56;;;;;;;17.35;5.92;;;;;;;2.00;70.81;99709.73;1709487;80;21030;-86
2022/01/14 14:07:26;;;;;;;14.55;4.65;;;;;;;2.02;70.37;99715.75;1696628;81;21128;-84
2022/01/14 14:10:32;;;;;;;11.20;4.90;;;;;;;2.03;69.93;99711.08;1704376;82;21156;-82
2022/01/14 14:12:57;;;;;;;15.65;6.40;;;;;;;2.09;69.90;99711.20;1741546;80;21066;-84
2022/01/14 14:15:44;;;;;;;11.95;4.90;;;;;;;2.03;69.93;99714.04;1753419;78;21551;-80
2022/01/14 14:18:11;;;;;;;13.18;4.85;;;;;;;2.05;69.33;99722.23;1766659;77;21077;-80
2022/01/14 14:20:39;;;;;;;13.10;4.75;;;;;;;2.03;69.60;99714.04;1765616;78;21058;-83
2022/01/14 14:26:00;;;;;;;11.25;4.90;;;;;;;2.00;69.09;99707.16;1713122;82;21076;-86
2022/01/14 14:28:29;;;;;;;19.02;5.92;;;;;;;1.95;69.28;99708.36;1712153;81;21091;-84
2022/01/14 14:30:57;;;;;;;18.70;6.35;;;;;;;1.98;70.01;99702.42;1645685;85;21402;-84
2022/01/14 14:33:24;;;;;;;10.50;5.12;;;;;;;1.90;69.56;99714.23;1646595;86;21121;-82
2022/01/14 14:35:59;;;;;;;14.10;6.12;;;;;;;1.87;69.73;99706.08;1675578;85;21033;-82
2022/01/14 14:38:27;;;;;;;18.05;7.17;;;;;;;1.81;69.89;99705.95;1656317;82;21266;-83
2022/01/14 14:40:59;;;;;;;24.00;8.18;;;;;;;1.79;69.97;99703.35;1665923;86;21092;-79
2022/01/14 14:43:27;;;;;;;30.68;11.43;;;;;;;1.83;70.07;99699.55;1669701;83;21063;-84
2022/01/14 14:45:56;;;;;;;38.38;11.75;;;;;;;1.83;70.32;99705.96;1669508;81;21194;-81
2022/01/14 14:48:24;;;;;;;35.25;11.65;;;;;;;1.83;70.31;99697.88;1704888;80;21130;-83
2022/01/14 14:50:51;;;;;;;19.52;8.98;;;;;;;1.82;70.35;99691.00;1696710;83;21036;-84
2022/01/14 14:53:19;;;;;;;15.80;6.75;;;;;;;1.84;70.36;99693.17;1677753;83;21069;-81
